createdAt,value
2018-09-17T00:00:12.101Z,21.6
2018-09-17T00:01:02.501Z,21.6
2018-09-17T00:01:52.837Z,21.6
2018-09-17T00:02:42.915Z,21.6
2018-09-17T00:03:32.902Z,21.6
2018-09-17T00:04:22.990Z,21.6
2018-09-17T00:05:13.059Z,21.6
2018-09-17T00:06:03.146Z,21.6
2018-09-17T00:06:53.613Z,21.6
2018-09-17T00:07:43.788Z,21.6
2018-09-17T00:08:33.600Z,21.6
2018-09-17T00:09:23.372Z,21.6
2018-09-17T00:10:13.512Z,21.6
2018-09-17T00:11:03.202Z,21.6
2018-09-17T00:11:53.536Z,21.6
2018-09-17T00:12:43.857Z,21.6
2018-09-17T00:13:34.342Z,21.6
2018-09-17T00:14:23.744Z,21.6
2018-09-17T00:15:14.689Z,21.6
2018-09-17T00:16:03.283Z,21.6
2018-09-17T00:16:54.487Z,21.6
2018-09-17T00:17:44.113Z,21.6
2018-09-17T00:18:33.783Z,21.6
2018-09-17T00:19:24.387Z,21.6
2018-09-17T00:20:14.171Z,21.6
2018-09-17T00:21:04.519Z,21.6
2018-09-17T00:21:54.866Z,21.6
2018-09-17T00:22:43.798Z,21.6
2018-09-17T00:23:34.697Z,21.6
2018-09-17T00:24:24.790Z,21.6
2018-09-17T00:25:15.148Z,21.6
2018-09-17T00:26:04.611Z,21.6
2018-09-17T00:26:55.021Z,21.6
2018-09-17T00:27:44.148Z,21.6
2018-09-17T00:28:35.425Z,21.6
2018-09-17T00:29:24.674Z,21.6
2018-09-17T00:30:14.889Z,21.6
2018-09-17T00:31:05.271Z,21.6
2018-09-17T00:31:55.269Z,21.6
2018-09-17T00:32:45.363Z,21.6
2018-09-17T00:33:34.940Z,21.6
2018-09-17T00:34:25.581Z,21.6
2018-09-17T00:35:15.368Z,21.6
2018-09-17T00:36:05.132Z,21.6
2018-09-17T00:36:56.050Z,21.6
2018-09-17T00:56:30.290Z,21.6
2018-09-17T00:57:19.580Z,21.6
2018-09-17T00:58:10.204Z,21.6
2018-09-17T00:58:59.693Z,21.6
2018-09-17T00:59:49.814Z,21.6
2018-09-17T01:00:40.099Z,21.6
2018-09-17T01:01:30.151Z,21.6
2018-09-17T01:02:19.951Z,21.6
2018-09-17T01:03:10.296Z,21.6
2018-09-17T01:03:59.763Z,21.6
2018-09-17T01:04:50.423Z,21.6
2018-09-17T01:05:40.191Z,21.6
2018-09-17T01:06:30.536Z,21.6
2018-09-17T01:07:20.598Z,21.6
2018-09-17T01:08:11.508Z,21.6
2018-09-17T01:09:00.717Z,21.6
2018-09-17T01:09:51.073Z,21.6
2018-09-17T01:10:41.135Z,21.6
2018-09-17T01:11:31.116Z,21.6
2018-09-17T01:12:21.339Z,21.6
2018-09-17T01:13:11.292Z,21.6
2018-09-17T01:14:00.507Z,21.6
2018-09-17T01:14:51.705Z,21.6
2018-09-17T01:15:40.892Z,21.6
2018-09-17T01:16:30.999Z,21.6
2018-09-17T01:17:21.064Z,21.6
2018-09-17T01:18:11.370Z,21.6
2018-09-17T01:19:01.759Z,21.6
2018-09-17T01:19:51.490Z,21.6
2018-09-17T01:20:41.664Z,21.6
2018-09-17T01:21:31.807Z,21.6
2018-09-17T01:22:21.715Z,21.6
2018-09-17T01:23:12.475Z,21.6
2018-09-17T01:24:02.091Z,21.6
2018-09-17T01:24:52.487Z,21.6
2018-09-17T01:25:42.217Z,21.6
2018-09-17T01:26:32.262Z,21.6
2018-09-17T01:27:22.027Z,21.6
2018-09-17T01:28:12.989Z,21.6
2018-09-17T01:29:02.472Z,21.6
2018-09-17T01:29:52.541Z,21.6
2018-09-17T01:30:43.396Z,21.6
2018-09-17T01:31:32.736Z,21.6
2018-09-17T01:32:22.674Z,21.6
2018-09-17T01:33:13.046Z,21.6
2018-09-17T01:34:03.416Z,21.6
2018-09-17T01:34:53.231Z,21.6
2018-09-17T01:35:42.433Z,21.6
2018-09-17T01:36:32.454Z,21.6
2018-09-17T01:37:22.346Z,21.6
2018-09-17T01:38:12.836Z,21.6
2018-09-17T01:39:02.961Z,21.6
2018-09-17T01:39:53.273Z,21.6
2018-09-17T01:40:43.340Z,21.6
2018-09-17T01:41:33.391Z,21.6
2018-09-17T01:42:23.406Z,21.6
2018-09-17T01:43:13.238Z,21.6
2018-09-17T01:44:03.609Z,21.6
2018-09-17T01:44:53.088Z,21.6
2018-09-17T01:45:43.700Z,21.6
2018-09-17T01:46:33.817Z,21.6
2018-09-17T01:47:24.203Z,21.6
2018-09-17T01:48:13.915Z,21.6
2018-09-17T01:49:04.254Z,21.6
2018-09-17T01:49:54.300Z,21.6
2018-09-17T01:50:44.083Z,21.6
2018-09-17T01:51:34.123Z,21.6
2018-09-17T01:52:24.795Z,21.6
2018-09-17T01:53:13.990Z,21.6
2018-09-17T01:54:04.913Z,21.6
2018-09-17T01:54:54.137Z,21.6
2018-09-17T01:55:43.910Z,21.6
2018-09-17T01:56:34.247Z,21.6
2018-09-17T01:57:23.550Z,21.6
2018-09-17T01:58:14.352Z,21.6
2018-09-17T01:59:04.118Z,21.6
2018-09-17T01:59:54.434Z,21.6
2018-09-17T02:00:44.525Z,21.6
2018-09-17T02:01:34.895Z,21.6
2018-09-17T02:02:24.975Z,21.6
2018-09-17T02:03:15.159Z,21.6
2018-09-17T02:04:05.116Z,21.6
2018-09-17T02:04:55.424Z,21.6
2018-09-17T02:05:45.491Z,21.6
2018-09-17T02:06:35.267Z,21.6
2018-09-17T02:07:24.285Z,21.6
2018-09-17T02:08:15.550Z,21.6
2018-09-17T02:09:06.201Z,21.6
2018-09-17T02:09:56.143Z,21.6
2018-09-17T02:10:45.021Z,21.6
2018-09-17T02:11:35.651Z,21.6
2018-09-17T02:12:25.449Z,21.6
2018-09-17T02:13:15.846Z,21.6
2018-09-17T02:14:05.550Z,21.6
2018-09-17T02:14:55.805Z,21.6
2018-09-17T02:15:45.989Z,21.6
2018-09-17T02:16:36.000Z,21.6
2018-09-17T02:17:25.814Z,21.6
2018-09-17T02:18:16.381Z,21.6
2018-09-17T02:19:06.220Z,21.6
2018-09-17T02:19:56.311Z,21.6
2018-09-17T02:20:46.034Z,21.6
2018-09-17T02:21:36.366Z,21.6
2018-09-17T02:22:26.449Z,21.6
2018-09-17T02:23:15.748Z,21.6
2018-09-17T02:24:06.381Z,21.6
2018-09-17T02:24:56.910Z,21.6
2018-09-17T02:25:46.960Z,21.6
2018-09-17T02:26:37.064Z,21.6
2018-09-17T02:27:26.524Z,21.6
2018-09-17T02:28:16.565Z,21.6
2018-09-17T02:29:07.201Z,21.6
2018-09-17T02:29:57.332Z,21.6
2018-09-17T02:30:46.194Z,21.6
2018-09-17T02:31:37.197Z,21.6
2018-09-17T02:32:27.229Z,21.6
2018-09-17T02:33:16.980Z,21.6
2018-09-17T02:34:07.573Z,21.6
2018-09-17T02:34:57.386Z,21.6
2018-09-17T02:35:47.147Z,21.6
2018-09-17T02:36:37.268Z,21.6
2018-09-17T02:37:27.570Z,21.6
2018-09-17T02:38:17.363Z,21.6
2018-09-17T02:39:07.950Z,21.6
2018-09-17T02:39:57.799Z,21.6
2018-09-17T02:40:47.810Z,21.6
2018-09-17T02:41:37.637Z,21.6
2018-09-17T02:42:28.275Z,21.6
2018-09-17T02:43:17.735Z,21.6
2018-09-17T02:44:08.315Z,21.6
2018-09-17T02:44:57.632Z,21.6
2018-09-17T02:45:47.921Z,21.6
2018-09-17T02:46:37.972Z,21.6
2018-09-17T02:47:27.772Z,21.6
2018-09-17T02:48:18.632Z,21.6
2018-09-17T02:49:08.768Z,21.6
2018-09-17T02:49:58.636Z,21.6
2018-09-17T02:50:48.887Z,21.6
2018-09-17T02:51:38.652Z,21.6
2018-09-17T02:52:29.015Z,21.6
2018-09-17T02:53:19.283Z,21.6
2018-09-17T02:54:08.539Z,21.6
2018-09-17T02:54:59.162Z,21.6
2018-09-17T02:55:49.028Z,21.6
2018-09-17T02:56:39.399Z,21.6
2018-09-17T02:57:29.067Z,21.6
2018-09-17T02:58:19.154Z,21.6
2018-09-17T02:59:10.514Z,21.6
2018-09-17T02:59:59.539Z,21.6
2018-09-17T03:00:48.774Z,21.6
2018-09-17T03:01:39.136Z,21.6
2018-09-17T03:02:29.236Z,21.6
2018-09-17T03:03:18.731Z,21.6
2018-09-17T03:04:09.411Z,21.6
2018-09-17T03:04:58.844Z,21.6
2018-09-17T03:05:49.298Z,21.6
2018-09-17T03:06:40.051Z,21.6
2018-09-17T03:07:29.601Z,21.6
2018-09-17T03:08:19.202Z,21.6
2018-09-17T03:09:09.640Z,21.6
2018-09-17T03:09:59.545Z,21.6
2018-09-17T03:10:49.556Z,21.6
2018-09-17T03:11:39.646Z,21.6
2018-09-17T03:12:29.435Z,21.6
2018-09-17T03:13:20.288Z,21.6
2018-09-17T03:14:10.111Z,21.6
2018-09-17T03:14:59.932Z,21.6
2018-09-17T03:15:49.706Z,21.6
2018-09-17T03:16:40.733Z,21.6
2018-09-17T03:17:30.602Z,21.6
2018-09-17T03:18:20.618Z,21.6
2018-09-17T03:19:10.965Z,21.6
2018-09-17T03:20:00.227Z,21.6
2018-09-17T03:20:50.794Z,21.6
2018-09-17T03:21:40.659Z,21.6
2018-09-17T03:22:30.925Z,21.6
2018-09-17T03:23:21.002Z,21.6
2018-09-17T03:24:11.325Z,21.6
2018-09-17T03:25:01.435Z,21.6
2018-09-17T03:25:50.955Z,21.6
2018-09-17T03:26:41.270Z,21.6
2018-09-17T03:27:31.589Z,21.6
2018-09-17T03:28:21.382Z,21.6
2018-09-17T03:29:11.735Z,21.6
2018-09-17T03:30:01.603Z,21.6
2018-09-17T03:30:51.552Z,21.6
2018-09-17T03:31:41.435Z,21.6
2018-09-17T03:32:31.685Z,21.6
2018-09-17T03:33:22.017Z,21.6
2018-09-17T03:34:12.108Z,21.6
2018-09-17T03:35:01.309Z,21.6
2018-09-17T03:35:51.889Z,21.6
2018-09-17T03:36:42.043Z,21.6
2018-09-17T03:37:32.097Z,21.6
2018-09-17T03:38:21.868Z,21.6
2018-09-17T03:39:12.171Z,21.6
2018-09-17T03:40:02.521Z,21.6
2018-09-17T03:40:52.013Z,21.6
2018-09-17T03:41:42.073Z,21.6
2018-09-17T03:42:32.516Z,21.6
2018-09-17T03:43:22.758Z,21.6
2018-09-17T03:44:12.410Z,21.6
2018-09-17T03:45:02.924Z,21.6
2018-09-17T03:45:52.376Z,21.6
2018-09-17T03:46:43.901Z,21.6
2018-09-17T03:47:32.720Z,21.6
2018-09-17T03:48:23.220Z,21.6
2018-09-17T03:49:13.506Z,21.6
2018-09-17T03:50:02.784Z,21.6
2018-09-17T03:50:52.460Z,21.6
2018-09-17T03:51:43.423Z,21.6
2018-09-17T05:25:25.912Z,21.6
2018-09-17T05:26:15.213Z,21.6
2018-09-17T05:27:05.580Z,21.6
2018-09-17T05:27:55.313Z,21.6
2018-09-17T05:28:45.138Z,21.7
2018-09-17T05:29:34.976Z,21.7
2018-09-17T05:30:25.561Z,21.7
2018-09-17T05:31:15.566Z,21.8
2018-09-17T05:32:05.627Z,21.8
2018-09-17T05:32:55.755Z,21.8
2018-09-17T05:33:45.473Z,21.8
2018-09-17T05:34:35.064Z,21.8
2018-09-17T05:35:25.638Z,21.8
2018-09-17T05:36:16.240Z,21.9
2018-09-17T05:37:06.082Z,21.8
2018-09-17T05:37:56.067Z,21.9
2018-09-17T05:38:45.789Z,21.9
2018-09-17T05:39:36.320Z,21.9
2018-09-17T05:40:26.531Z,21.9
2018-09-17T05:41:16.290Z,21.9
2018-09-17T05:42:05.810Z,21.9
2018-09-17T05:42:56.425Z,21.9
2018-09-17T05:43:46.493Z,22
2018-09-17T05:44:38.025Z,22
2018-09-17T05:45:26.749Z,22
2018-09-17T05:46:17.037Z,22.1
2018-09-17T05:47:07.095Z,22
2018-09-17T05:47:55.972Z,22
2018-09-17T05:48:46.252Z,22.1
2018-09-17T05:49:36.946Z,22.1
2018-09-17T05:50:27.355Z,22
2018-09-17T05:51:17.094Z,22.1
2018-09-17T05:52:07.282Z,22.1
2018-09-17T05:52:57.024Z,21.8
2018-09-17T05:53:47.862Z,22.6
2018-09-17T05:54:36.810Z,23.5
2018-09-17T05:55:27.704Z,25.9
2018-09-17T05:56:17.526Z,26.7
2018-09-17T05:57:07.788Z,26.4
2018-09-17T05:57:57.593Z,25.7
2018-09-17T05:58:47.941Z,25.1
2018-09-17T05:59:38.169Z,24.8
2018-09-17T06:00:26.891Z,24.9
2018-09-17T06:01:17.240Z,25.2
2018-09-17T06:02:08.428Z,25.6
2018-09-17T06:02:57.937Z,25.9
2018-09-17T06:03:48.031Z,26
2018-09-17T06:04:38.610Z,26.1
2018-09-17T06:05:28.459Z,26.1
2018-09-17T06:06:18.160Z,26.1
2018-09-17T06:07:09.623Z,26.2
2018-09-17T06:07:58.665Z,26.3
2018-09-17T06:08:48.397Z,26.4
2018-09-17T06:09:38.809Z,26.6
2018-09-17T06:10:28.833Z,26.8
2018-09-17T06:11:19.088Z,26.8
2018-09-17T06:12:08.955Z,26.9
2018-09-17T06:12:58.726Z,27.1
2018-09-17T06:13:49.533Z,27.2
2018-09-17T06:14:39.768Z,27.3
2018-09-17T06:15:28.595Z,27.4
2018-09-17T06:16:19.556Z,27.5
2018-09-17T06:17:08.551Z,27.6
2018-09-17T06:17:58.603Z,27.8
2018-09-17T06:18:48.619Z,27.9
2018-09-17T06:19:37.593Z,27.9
2018-09-17T06:20:28.791Z,28.1
2018-09-17T06:21:19.333Z,28.1
2018-09-17T06:22:09.401Z,27.9
2018-09-17T06:22:59.481Z,27.9
2018-09-17T06:24:39.333Z,27.9
2018-09-17T06:25:29.425Z,27.9
2018-09-17T06:26:19.688Z,27.9
2018-09-17T06:27:10.265Z,28
2018-09-17T06:28:00.360Z,28.1
2018-09-17T06:28:50.255Z,28
2018-09-17T06:29:39.425Z,28
2018-09-17T06:30:30.339Z,28
2018-09-17T06:31:20.138Z,28
2018-09-17T06:32:10.452Z,28.1
2018-09-17T06:32:59.677Z,28.1
2018-09-17T06:33:50.594Z,28.1
2018-09-17T06:34:40.375Z,28.2
2018-09-17T06:35:30.437Z,28.2
2018-09-17T06:36:21.097Z,28.3
2018-09-17T06:37:10.570Z,28.4
2018-09-17T06:38:00.330Z,28.6
2018-09-17T06:38:50.626Z,28.8
2018-09-17T06:39:40.723Z,28.8
2018-09-17T06:40:30.786Z,28.8
2018-09-17T06:41:21.147Z,28.8
2018-09-17T06:42:11.132Z,28.8
2018-09-17T06:43:01.579Z,28.8
2018-09-17T06:43:51.285Z,28.8
2018-09-17T06:44:40.784Z,28.8
2018-09-17T06:45:31.417Z,28.9
2018-09-17T06:46:21.588Z,29
2018-09-17T06:47:10.442Z,29.3
2018-09-17T06:48:01.944Z,29.5
2018-09-17T06:48:50.604Z,29.8
2018-09-17T06:49:41.213Z,30
2018-09-17T06:50:31.564Z,30.1
2018-09-17T06:51:22.258Z,30.2
2018-09-17T06:52:12.126Z,30.2
2018-09-17T06:53:02.139Z,30.1
2018-09-17T06:53:52.186Z,29.8
2018-09-17T06:54:41.614Z,29.7
2018-09-17T06:55:31.877Z,29.7
2018-09-17T06:56:21.931Z,29.7
2018-09-17T06:57:12.272Z,29.8
2018-09-17T06:58:02.119Z,29.8
2018-09-17T06:58:51.595Z,29.8
2018-09-17T06:59:41.345Z,29.9
2018-09-17T07:00:32.479Z,30.1
2018-09-17T07:01:22.817Z,30.1
2018-09-17T07:02:12.398Z,30.2
2018-09-17T07:03:02.435Z,30.3
2018-09-17T07:03:52.776Z,30.3
2018-09-17T07:04:42.568Z,30.3
2018-09-17T07:05:33.196Z,30.2
2018-09-17T07:06:23.240Z,30.3
2018-09-17T07:07:12.214Z,30.2
2018-09-17T07:08:02.269Z,30.3
2018-09-17T07:08:52.884Z,30.3
2018-09-17T07:09:42.694Z,30.5
2018-09-17T07:10:32.524Z,30.6
2018-09-17T07:11:22.217Z,30.7
2018-09-17T07:12:13.421Z,30.8
2018-09-17T07:13:03.484Z,30.7
2018-09-17T07:13:52.996Z,30.7
2018-09-17T07:14:43.569Z,30.8
2018-09-17T07:15:33.265Z,30.9
2018-09-17T07:16:23.614Z,31.1
2018-09-17T07:17:13.500Z,31.4
2018-09-17T07:18:03.720Z,31.8
2018-09-17T07:18:53.636Z,32.1
2018-09-17T07:19:43.988Z,32.3
2018-09-17T07:20:33.171Z,32.3
2018-09-17T07:21:23.828Z,32.3
2018-09-17T07:22:13.609Z,32.3
2018-09-17T07:23:03.656Z,32.4
2018-09-17T07:23:53.806Z,32.6
2018-09-17T07:24:43.487Z,32.8
2018-09-17T07:25:34.443Z,32.8
2018-09-17T07:26:24.196Z,33
2018-09-17T07:27:14.301Z,33.3
2018-09-17T07:28:04.335Z,33.5
2018-09-17T07:28:53.623Z,33.7
2018-09-17T07:29:44.746Z,33.9
2018-09-17T07:30:34.858Z,34.1
2018-09-17T07:31:24.853Z,34.3
2018-09-17T07:32:14.070Z,34.3
2018-09-17T07:33:04.705Z,34.4
2018-09-17T07:33:55.048Z,34.5
2018-09-17T07:34:44.863Z,34.7
2018-09-17T07:35:34.846Z,34.9
2018-09-17T07:36:27.133Z,35.1
2018-09-17T07:37:15.000Z,35.1
2018-09-17T07:38:04.003Z,35.3
2018-09-17T07:38:55.183Z,35.4
2018-09-17T07:39:45.200Z,35.6
2018-09-17T07:40:35.392Z,35.8
2018-09-17T07:41:25.537Z,36
2018-09-17T07:42:15.800Z,36.2
2018-09-17T07:43:05.410Z,36.3
2018-09-17T07:43:55.529Z,36.3
2018-09-17T07:44:45.085Z,36.5
2018-09-17T07:45:35.636Z,36.7
2018-09-17T07:46:25.209Z,36.9
2018-09-17T07:47:15.475Z,37.1
2018-09-17T07:48:05.823Z,37.3
2018-09-17T07:48:55.587Z,37.5
2018-09-17T07:49:45.942Z,37.6
2018-09-17T07:50:36.369Z,37.8
2018-09-17T07:51:25.817Z,37.9
2018-09-17T07:52:15.846Z,38.1
2018-09-17T07:53:06.644Z,38.3
2018-09-17T07:53:56.261Z,38.5
2018-09-17T07:54:45.589Z,38.6
2018-09-17T07:55:36.151Z,38.8
2018-09-17T07:56:26.201Z,39
2018-09-17T07:57:16.495Z,39.1
2018-09-17T07:58:06.599Z,39.3
2018-09-17T07:58:56.735Z,39.5
2018-09-17T07:59:46.966Z,39.6
2018-09-17T08:00:36.509Z,39.8
2018-09-17T08:01:27.168Z,39.9
2018-09-17T08:02:17.178Z,40.1
2018-09-17T08:03:07.355Z,40.3
2018-09-17T08:03:56.740Z,40.4
2018-09-17T08:04:46.900Z,40.6
2018-09-17T08:05:36.603Z,40.7
2018-09-17T08:06:26.818Z,40.9
2018-09-17T08:07:17.550Z,41
2018-09-17T08:08:07.366Z,41.2
2018-09-17T08:08:58.195Z,41.3
2018-09-17T08:09:47.463Z,41.4
2018-09-17T08:10:37.518Z,41.6
2018-09-17T08:11:27.058Z,41.8
2018-09-17T08:12:17.942Z,41.9
2018-09-17T08:13:07.761Z,42.1
2018-09-17T08:13:57.460Z,42.3
2018-09-17T08:14:48.157Z,42.4
2018-09-17T08:15:37.917Z,42.6
2018-09-17T08:16:28.020Z,42.7
2018-09-17T08:17:18.050Z,42.9
2018-09-17T08:18:07.856Z,43
2018-09-17T08:18:58.475Z,43.2
2018-09-17T08:19:48.290Z,43.3
2018-09-17T08:20:37.530Z,43.5
2018-09-17T08:21:28.622Z,43.6
2018-09-17T08:22:17.856Z,43.8
2018-09-17T08:23:08.190Z,43.9
2018-09-17T08:23:57.782Z,44.1
2018-09-17T08:24:48.372Z,44.2
2018-09-17T08:25:39.356Z,44.4
2018-09-17T08:26:28.179Z,44.5
2018-09-17T08:27:18.519Z,44.6
2018-09-17T08:28:08.549Z,44.8
2018-09-17T08:28:58.942Z,44.9
2018-09-17T08:29:48.577Z,45.1
2018-09-17T08:30:39.067Z,45.3
2018-09-17T08:31:28.920Z,45.4
2018-09-17T08:32:19.165Z,45.6
2018-09-17T08:33:08.689Z,45.7
2018-09-17T08:33:58.298Z,45.9
2018-09-17T08:34:49.755Z,46
2018-09-17T08:35:39.520Z,46.1
2018-09-17T08:36:29.559Z,46.3
2018-09-17T08:37:18.703Z,46.4
2018-09-17T08:38:08.877Z,46.6
2018-09-17T08:38:59.426Z,46.6
2018-09-17T08:39:50.648Z,46.8
2018-09-17T08:40:39.793Z,46.9
2018-09-17T08:41:30.066Z,47.1
2018-09-17T08:42:20.036Z,47.2
2018-09-17T08:43:09.494Z,47.3
2018-09-17T08:44:00.433Z,47.4
2018-09-17T08:44:50.105Z,47.6
2018-09-17T08:45:40.572Z,47.8
2018-09-17T08:46:30.631Z,47.9
2018-09-17T08:47:20.344Z,47.9
2018-09-17T08:48:10.095Z,48.1
2018-09-17T08:49:00.471Z,48.2
2018-09-17T08:49:50.710Z,48.3
2018-09-17T08:50:40.323Z,48.4
2018-09-17T08:51:30.638Z,48.6
2018-09-17T08:52:20.516Z,48.7
2018-09-17T08:53:11.534Z,48.8
2018-09-17T08:54:01.302Z,49
2018-09-17T08:54:50.363Z,49.1
2018-09-17T08:55:40.727Z,49.2
2018-09-17T08:56:30.810Z,49.3
2018-09-17T08:57:20.785Z,49.4
2018-09-17T08:58:12.187Z,49.6
2018-09-17T08:59:00.958Z,49.7
2018-09-17T08:59:51.587Z,49.8
2018-09-17T09:00:41.810Z,49.9
2018-09-17T09:01:31.685Z,49.9
2018-09-17T09:02:20.897Z,50.1
2018-09-17T09:03:11.525Z,50.2
2018-09-17T09:04:02.059Z,50.3
2018-09-17T09:04:51.382Z,50.4
2018-09-17T09:05:41.552Z,50.4
2018-09-17T09:06:31.696Z,50.6
2018-09-17T09:07:21.915Z,50.7
2018-09-17T09:08:11.507Z,50.8
2018-09-17T09:09:01.544Z,50.9
2018-09-17T09:09:52.303Z,50.9
2018-09-17T09:10:42.092Z,51
2018-09-17T09:11:31.887Z,51.1
2018-09-17T09:12:21.627Z,51.2
2018-09-17T09:13:12.527Z,51.3
2018-09-17T09:14:02.050Z,51.4
2018-09-17T09:14:52.092Z,51.5
2018-09-17T09:15:42.756Z,51.6
2018-09-17T09:16:32.786Z,51.7
2018-09-17T09:17:22.631Z,51.8
2018-09-17T09:18:12.367Z,51.8
2018-09-17T09:19:02.747Z,52
2018-09-17T09:19:52.866Z,52.1
2018-09-17T09:20:42.278Z,52.1
2018-09-17T09:21:32.856Z,52.3
2018-09-17T09:23:13.064Z,52.4
2018-09-17T09:40:01.635Z,54.1
2018-09-17T09:40:44.244Z,54.3
2018-09-17T09:41:34.262Z,54.3
2018-09-17T09:42:24.312Z,54.4
2018-09-17T09:43:14.143Z,54.5
2018-09-17T09:44:04.452Z,54.6
2018-09-17T09:44:54.512Z,54.6
2018-09-17T09:45:45.472Z,54.8
2018-09-17T09:46:34.575Z,54.8
2018-09-17T09:47:24.182Z,54.9
2018-09-17T09:48:13.964Z,55
2018-09-17T09:49:03.681Z,55.1
2018-09-17T09:49:54.864Z,55.2
2018-09-17T09:50:44.674Z,55.3
2018-09-17T09:51:34.219Z,55.3
2018-09-17T09:52:24.294Z,55.4
2018-09-17T09:53:14.644Z,55.5
2018-09-17T09:54:04.954Z,55.6
2018-09-17T09:54:54.973Z,55.6
2018-09-17T09:55:45.239Z,55.7
2018-09-17T09:56:35.417Z,55.9
2018-09-17T09:57:24.853Z,55.9
2018-09-17T09:58:15.509Z,55.9
2018-09-17T09:59:04.483Z,56
2018-09-17T09:59:55.644Z,56.1
2018-09-17T10:00:45.936Z,56.3
2018-09-17T10:01:35.466Z,56.3
2018-09-17T10:02:25.881Z,56.4
2018-09-17T10:03:15.281Z,56.4
2018-09-17T10:04:05.391Z,56.6
2018-09-17T10:04:55.736Z,56.6
2018-09-17T10:05:45.619Z,56.8
2018-09-17T10:06:36.081Z,56.8
2018-09-17T10:07:25.943Z,56.8
2018-09-17T10:08:16.260Z,56.9
2018-09-17T10:09:06.051Z,57
2018-09-17T10:09:55.614Z,57.1
2018-09-17T10:10:46.521Z,57.2
2018-09-17T10:11:36.673Z,57.3
2018-09-17T10:12:25.720Z,57.4
2018-09-17T10:13:16.623Z,57.4
2018-09-17T10:14:05.636Z,57.5
2018-09-17T10:14:56.495Z,57.6
2018-09-17T10:15:46.856Z,57.6
2018-09-17T10:17:26.180Z,57.8
2018-09-17T10:18:16.782Z,57.9
2018-09-17T10:19:05.726Z,58
2018-09-17T10:19:56.895Z,58.1
2018-09-17T10:20:46.920Z,58.2
2018-09-17T10:21:36.987Z,58.3
2018-09-17T10:22:27.348Z,58.4
2018-09-17T10:23:17.392Z,58.4
2018-09-17T10:24:07.475Z,58.5
2018-09-17T10:25:47.833Z,58.6
2018-09-17T10:26:37.321Z,58.8
2018-09-17T10:27:27.421Z,58.9
2018-09-17T10:28:18.037Z,58.9
2018-09-17T10:29:07.579Z,59
2018-09-17T10:29:58.555Z,58.9
2018-09-17T10:30:47.194Z,58.8
2018-09-17T10:31:38.531Z,58.9
2018-09-17T10:32:27.799Z,59.1
2018-09-17T10:33:17.319Z,59.1
2018-09-17T10:34:08.216Z,58.9
2018-09-17T10:34:57.531Z,58.7
2018-09-17T10:35:48.049Z,58.4
2018-09-17T10:36:37.318Z,58.3
2018-09-17T10:37:28.466Z,58.2
2018-09-17T10:38:18.034Z,58.1
2018-09-17T10:39:08.919Z,58.3
2018-09-17T10:39:58.676Z,58.4
2018-09-17T10:41:38.801Z,58.9
2018-09-17T10:42:28.286Z,59.1
2018-09-17T10:43:18.649Z,59.3
2018-09-17T10:44:08.714Z,59.4
2018-09-17T10:44:58.808Z,59.6
2018-09-17T10:45:48.851Z,59.6
2018-09-17T10:46:38.161Z,59.7
2018-09-17T10:47:29.239Z,59.8
2018-09-17T10:48:18.743Z,59.9
2018-09-17T10:49:09.674Z,60
2018-09-17T10:49:59.165Z,60.1
2018-09-17T10:50:49.232Z,60.1
2018-09-17T10:51:39.288Z,60.2
2018-09-17T10:52:28.486Z,60.3
2018-09-17T10:53:19.128Z,60.4
2018-09-17T10:54:09.780Z,60.4
2018-09-17T10:54:59.807Z,60.5
2018-09-17T10:55:48.807Z,60.5
2018-09-17T10:56:39.978Z,60.6
2018-09-17T10:57:30.690Z,60.7
2018-09-17T10:58:19.522Z,60.8
2018-09-17T10:59:10.260Z,60.9
2018-09-17T10:59:59.971Z,60.9
2018-09-17T11:00:50.243Z,60.8
2018-09-17T11:01:39.772Z,60.8
2018-09-17T11:02:29.517Z,60.9
2018-09-17T11:03:20.404Z,60.9
2018-09-17T11:04:10.217Z,61
2018-09-17T11:05:00.337Z,61.2
2018-09-17T11:05:50.384Z,61.3
2018-09-17T11:06:40.482Z,61.3
2018-09-17T11:07:30.520Z,61.4
2018-09-17T11:08:20.983Z,61.4
2018-09-17T11:09:10.923Z,61.5
2018-09-17T11:10:00.950Z,61.5
2018-09-17T11:10:51.014Z,61.3
2018-09-17T11:11:41.097Z,61.1
2018-09-17T11:12:31.121Z,61.2
2018-09-17T11:13:21.517Z,61.4
2018-09-17T11:14:10.716Z,61.6
2018-09-17T11:15:01.117Z,61.8
2018-09-17T11:15:51.126Z,61.8
2018-09-17T11:16:41.485Z,61.8
2018-09-17T11:17:32.892Z,61.8
2018-09-17T11:18:21.445Z,61.8
2018-09-17T11:19:11.765Z,61.7
2018-09-17T11:20:01.506Z,61.8
2018-09-17T11:20:51.558Z,62.1
2018-09-17T11:21:41.896Z,62.1
2018-09-17T11:22:31.627Z,62.2
2018-09-17T11:23:22.142Z,62.3
2018-09-17T11:24:11.466Z,62.4
2018-09-17T11:25:02.044Z,62.4
2018-09-17T11:25:51.893Z,62.4
2018-09-17T11:26:42.273Z,62.3
2018-09-17T11:27:32.024Z,62.4
2018-09-17T11:28:22.349Z,62.4
2018-09-17T11:29:12.118Z,62.4
2018-09-17T11:30:02.203Z,62.3
2018-09-17T11:30:52.561Z,62
2018-09-17T11:31:42.357Z,61.9
2018-09-17T11:32:32.902Z,62
2018-09-17T11:33:21.583Z,62.2
2018-09-17T11:34:11.871Z,62.3
2018-09-17T11:35:02.593Z,62.2
2018-09-17T11:35:52.933Z,61.9
2018-09-17T11:36:43.016Z,61.6
2018-09-17T11:37:32.807Z,61.4
2018-09-17T11:38:22.882Z,61.2
2018-09-17T11:39:12.873Z,61.1
2018-09-17T11:40:02.965Z,60.9
2018-09-17T11:40:53.072Z,60.8
2018-09-17T11:41:42.905Z,60.8
2018-09-17T11:42:33.199Z,60.6
2018-09-17T11:43:23.790Z,60.5
2018-09-17T11:44:13.579Z,60.4
2018-09-17T11:45:03.125Z,60.3
2018-09-17T11:45:53.389Z,60.2
2018-09-17T11:46:43.750Z,60.1
2018-09-17T11:47:33.517Z,59.9
2018-09-17T11:48:24.608Z,59.9
2018-09-17T11:49:13.362Z,59.8
2018-09-17T11:50:03.733Z,59.8
2018-09-17T11:50:53.785Z,60.1
2018-09-17T11:51:43.555Z,60.2
2018-09-17T11:52:34.182Z,60.2
2018-09-17T11:53:23.674Z,60.2
2018-09-17T11:54:13.841Z,60.3
2018-09-17T11:55:04.112Z,60.3
2018-09-17T11:55:54.216Z,60.3
2018-09-17T11:56:44.211Z,60.4
2018-09-17T11:57:34.585Z,60.3
2018-09-17T11:58:24.346Z,60.1
2018-09-17T11:59:14.229Z,59.8
2018-09-17T12:00:04.757Z,59.7
2018-09-17T12:00:54.604Z,59.6
2018-09-17T12:01:45.349Z,59.4
2018-09-17T12:02:34.962Z,59.4
2018-09-17T12:03:25.031Z,59.3
2018-09-17T12:04:14.557Z,59.2
2018-09-17T12:05:04.571Z,59.1
2018-09-17T12:05:54.919Z,59
2018-09-17T12:06:45.266Z,58.9
2018-09-17T12:07:35.055Z,58.8
2018-09-17T12:08:24.916Z,58.8
2018-09-17T12:09:15.747Z,58.9
2018-09-17T12:10:04.769Z,59.1
2018-09-17T12:10:54.941Z,59.4
2018-09-17T12:11:45.156Z,59.6
2018-09-17T12:12:34.966Z,59.4
2018-09-17T12:13:25.799Z,59.1
2018-09-17T12:14:15.330Z,58.9
2018-09-17T12:15:05.362Z,58.8
2018-09-17T12:15:55.380Z,58.7
2018-09-17T12:16:45.532Z,58.8
2018-09-17T12:17:36.083Z,59.1
2018-09-17T12:18:25.623Z,59.4
2018-09-17T12:19:16.470Z,59.6
2018-09-17T12:20:06.293Z,59.8
2018-09-17T12:20:56.311Z,59.8
2018-09-17T12:21:46.195Z,59.9
2018-09-17T12:22:36.492Z,59.9
2018-09-17T12:23:26.537Z,59.7
2018-09-17T12:24:16.375Z,59.6
2018-09-17T12:25:06.678Z,59.7
2018-09-17T12:25:55.956Z,59.9
2018-09-17T12:26:46.226Z,60.2
2018-09-17T12:27:36.584Z,60.3
2018-09-17T12:28:26.456Z,60.4
2018-09-17T12:29:16.692Z,60.4
2018-09-17T12:30:07.041Z,60.4
2018-09-17T12:30:56.664Z,60.4
2018-09-17T12:31:46.878Z,60.4
2018-09-17T12:32:36.986Z,60.4
2018-09-17T12:33:27.370Z,60.6
2018-09-17T12:34:17.134Z,60.6
2018-09-17T12:35:07.138Z,60.8
2018-09-17T12:35:57.238Z,60.8
2018-09-17T12:36:47.293Z,60.8
2018-09-17T12:37:37.178Z,60.9
2018-09-17T12:38:26.913Z,60.9
2018-09-17T12:39:17.504Z,61
2018-09-17T12:40:07.810Z,61.1
2018-09-17T12:40:57.603Z,61.1
2018-09-17T12:41:47.941Z,61.1
2018-09-17T12:42:37.991Z,61.2
2018-09-17T12:43:28.325Z,61.2
2018-09-17T12:44:18.148Z,61.3
2018-09-17T12:45:08.244Z,61.3
2018-09-17T12:45:59.133Z,61.3
2018-09-17T12:46:48.023Z,61.4
2018-09-17T12:47:38.117Z,61.4
2018-09-17T12:48:27.934Z,61.4
2018-09-17T12:49:18.225Z,61.5
2018-09-17T12:50:08.295Z,61.6
2018-09-17T12:50:57.920Z,61.6
2018-09-17T12:51:48.530Z,61.6
2018-09-17T12:52:38.293Z,61.6
2018-09-17T12:53:28.589Z,61.6
2018-09-17T12:54:18.815Z,61.6
2018-09-17T12:55:08.947Z,61.6
2018-09-17T12:55:58.738Z,61.4
2018-09-17T12:56:48.662Z,61.4
2018-09-17T12:57:39.127Z,61.4
2018-09-17T12:58:29.662Z,61.5
2018-09-17T12:59:18.999Z,61.3
2018-09-17T13:00:09.344Z,61.1
2018-09-17T13:00:59.567Z,60.9
2018-09-17T13:01:49.186Z,60.7
2018-09-17T13:02:39.825Z,60.6
2018-09-17T13:03:30.082Z,60.4
2018-09-17T13:04:19.106Z,60.4
2018-09-17T13:05:09.483Z,60.3
2018-09-17T13:05:59.199Z,60.3
2018-09-17T13:06:49.897Z,60.3
2018-09-17T13:07:39.576Z,60.4
2018-09-17T13:08:29.999Z,60.5
2018-09-17T13:09:19.742Z,60.6
2018-09-17T13:10:10.089Z,60.7
2018-09-17T13:10:59.901Z,60.8
2018-09-17T13:11:49.660Z,60.8
2018-09-17T13:12:40.590Z,60.8
2018-09-17T13:13:30.369Z,60.9
2018-09-17T13:14:20.497Z,60.9
2018-09-17T13:15:10.234Z,61
2018-09-17T13:16:00.274Z,61.1
2018-09-17T13:16:50.596Z,61.1
2018-09-17T13:17:40.720Z,61.1
2018-09-17T13:18:30.779Z,61.2
2018-09-17T13:19:20.528Z,61.1